This is the latest recevied weather packets stored in our database for station/object K2MRS. If no packets are shown the sender has not sent any weather packets the latest 1 day(s).
| Time | Temp. | Humidity | Pressure | Rain* | Wind** | Luminosity | Snow |
|---|---|---|---|---|---|---|---|
| 1836274814 | 17.78° C | 79% | 1015.2 hPa | 0 mm | 0 m/s | 0 W/m² | - |
| 1836274514 | 18.33° C | 78% | 1015 hPa | 0 mm | 0 m/s | 0 W/m² | - |
| 1836274366 | 17.78° C | 79% | 1015.2 hPa | 0 mm | 0 m/s | 0 W/m² | - |
| 1836274214 | 18.33° C | 78% | 1015 hPa | 0 mm | 0 m/s | 0 W/m² | - |
| 1836273911 | 18.33° C | 78% | 1015 hPa | 0 mm | 0 m/s | 0 W/m² | - |
| 1778034467 | 13.89° C | 79% | 1017 hPa | 0 mm | 0 m/s | 23 W/m² | - |
| 1778034167 | 13.89° C | 79% | 1016.9 hPa | 0 mm | 0 m/s | 26 W/m² | - |
| 1778033865 | 13.89° C | 78% | 1016.9 hPa | 0 mm | 0 m/s | 30 W/m² | - |
| 1778033562 | 14.44° C | 78% | 1016.9 hPa | 0 mm | 0 m/s | 35 W/m² | - |
| 1778033263 | 14.44° C | 78% | 1016.7 hPa | 0 mm | 0 m/s | 39 W/m² | - |
| 1778032963 | 14.44° C | 78% | 1016.6 hPa | 0 mm | 0 m/s | 53 W/m² | - |
| 1778032661 | 14.44° C | 77% | 1016.6 hPa | 0 mm | 0 m/s | 62 W/m² | - |
| 1778032487 | 14.44° C | 77% | 1016.4 hPa | 0 mm | 0 m/s | 70 W/m² | - |
| 1778032190 | 14.44° C | 77% | 1016.4 hPa | 0 mm | 0 m/s | 74 W/m² | - |
| 1778031888 | 14.44° C | 77% | 1016.4 hPa | 0 mm | 0 m/s | 83 W/m² | - |
| 1778031459 | 14.44° C | 77% | 1016.4 hPa | 0 mm | 0 m/s | 90 W/m² | - |
| 1778031159 | 14.44° C | 77% | 1016.4 hPa | 0 mm | 0 m/s | 97 W/m² | - |
| 1778030987 | 14.44° C | 78% | 1016.3 hPa | 0 mm | 0 m/s | 104 W/m² | - |
| 1778030557 | 14.44° C | 78% | 1016.4 hPa | 0 mm | 0 m/s | 121 W/m² | - |
| 1778030382 | 14.44° C | 78% | 1016.4 hPa | 0 mm | 0 m/s | 125 W/m² | - |
| 1778030086 | 14.44° C | 78% | 1016.4 hPa | 0 mm | 0 m/s | 127 W/m² | - |
| 1778029783 | 14.44° C | 77% | 1016.6 hPa | 0 mm | 0 m/s | 134 W/m² | - |
| 1778029355 | 15° C | 77% | 1016.6 hPa | 0 mm | 0 m/s | 139 W/m² | - |
| 1778029055 | 15° C | 78% | 1016.4 hPa | 0 mm | 0 m/s | 146 W/m² | - |
| 1778028755 | 15° C | 79% | 1016.3 hPa | 0 mm | 0 m/s | 137 W/m² | - |
* Rain latest hour (hover to see other rain measurements)
** Current wind speed in m/s (hover to see current wind gust speed)